Saint Ignace, MI

1:38 AM EST on January 21, 2017 (GMT -0500)
Mackinac Island

Weather History for KMCD - February, 2013

Change the Weather History Date:

Friday, February 8, 2013

  Actual Average Record
Temperature  
Mean Temperature 16 °F -  
Max Temperature 22 °F 25 °F 44 °F (1991)
Min Temperature 11 °F 13 °F -5 °F (1974)
Degree Days  
Heating Degree Days 48    
Moisture  
Dew Point 8 °F    
Average Humidity 72    
Maximum Humidity 86    
Minimum Humidity 57    
Precipitation  
Precipitation 0.00 in - - ()
Sea Level Pressure  
Sea Level Pressure 30.26 in    
Wind  
Wind Speed 12 mph (NNE)    
Max Wind Speed 18 mph    
Max Gust Speed 20 mph    
Visibility 10 miles    
Events Snow    
Averages and records for this station are not official NWS values.
T = Trace of Precipitation, MM = Missing Value Source: NWS Daily Summary

Daily Weather History Graph

Daily Weather History Graph

Search for Another Location

Airport or City:

Trip Planner

Search our weather history database for the weather conditions in past years. The results will help you decide how hot, cold, wet, or windy it might be!

Date:

Astronomy

Feb. 08, 2013 Rise Set
Actual Time 7:50 AM EST 5:55 PM EST
Civil Twilight 7:19 AM EST 6:26 PM EST
Nautical Twilight 6:44 AM EST 7:01 PM EST
Astronomical Twilight 6:09 AM EST 7:36 PM EST
Moon 6:21 AM EST (2/8) 4:25 PM EST (2/8)
Length of Visible Light 11h 06m
Length of Day
10h 04m
Waning Crescent, 3% of the Moon is Illuminated
Feb 8
Waning Crescent
Feb 10
New
Feb 17
First Quarter
Feb 25
Full
Mar 4
Last Quarter

Hourly Weather History & Observations

Time (EST) Temp. Windchill Dew Point Humidity Pressure Visibility Wind Dir Wind Speed Gust Speed Precip Events Conditions
12:34 AM 17.2 °F 1.2 °F 13.6 °F 86% 30.13 in 7.0 mi NE 18.4 mph - N/A Snow Light Snow
12:54 AM 17.2 °F 1.2 °F 13.5 °F 85% 30.13 in 10.0 mi NE 18.4 mph - N/A   Overcast
1:34 AM 17.1 °F 1.0 °F 13.1 °F 84% 30.12 in 10.0 mi NE 18.4 mph - N/A   Overcast
2:14 AM 16.7 °F 2.0 °F 12.9 °F 85% 30.12 in 10.0 mi NE 15.0 mph - N/A   Overcast
2:34 AM 16.7 °F 2.0 °F 12.7 °F 84% 30.13 in 10.0 mi NE 15.0 mph - N/A   Overcast
2:54 AM 16.5 °F 2.4 °F 12.2 °F 83% 30.13 in 10.0 mi NE 13.8 mph 19.6 mph N/A   Overcast
3:14 AM 16.2 °F 2.5 °F 11.8 °F 83% 30.13 in 10.0 mi NE 12.7 mph 17.3 mph N/A   Overcast
3:34 AM 15.8 °F 2.1 °F 11.3 °F 82% 30.13 in 10.0 mi NE 12.7 mph - N/A   Overcast
4:34 AM 14.9 °F 0.9 °F 10.2 °F 82% 30.14 in 10.0 mi NE 12.7 mph 18.4 mph N/A   Overcast
5:14 AM 14.0 °F -0.2 °F 9.1 °F 81% 30.15 in 10.0 mi NNE 12.7 mph - N/A   Overcast
5:34 AM 13.8 °F -1.1 °F 9.0 °F 81% 30.16 in 10.0 mi NNE 13.8 mph - N/A   Overcast
6:34 AM 14.0 °F 0.5 °F 8.6 °F 79% 30.17 in 10.0 mi NNE 11.5 mph - N/A   Overcast
7:14 AM 14.2 °F 0.7 °F 9.3 °F 81% 30.18 in 10.0 mi NNE 11.5 mph - N/A Snow Light Snow
7:34 AM 14.5 °F 2.7 °F 9.5 °F 80% 30.19 in 10.0 mi NNE 9.2 mph - N/A Snow Light Snow
7:54 AM 14.2 °F 0.7 °F 9.3 °F 81% 30.19 in 10.0 mi NNE 11.5 mph - N/A Snow Light Snow
8:34 AM 13.1 °F 0.1 °F 8.1 °F 80% 30.21 in 10.0 mi NNE 10.4 mph - N/A   Scattered Clouds
8:54 AM 13.1 °F -0.7 °F 8.4 °F 82% 30.21 in 10.0 mi North 11.5 mph - N/A   Mostly Cloudy
9:14 AM 14.0 °F 1.2 °F 8.8 °F 80% 30.22 in 10.0 mi NNE 10.4 mph - N/A   Mostly Cloudy
9:33 AM 15.4 °F 4.6 °F 8.6 °F 74% 30.22 in 10.0 mi North 8.1 mph 16.1 mph N/A   Overcast
10:14 AM 16.9 °F 3.4 °F 8.8 °F 71% 30.24 in 10.0 mi NNE 12.7 mph 16.1 mph N/A   Overcast
10:33 AM 16.5 °F 5.1 °F 8.6 °F 71% 30.24 in 10.0 mi North 9.2 mph - N/A   Overcast
10:54 AM 15.8 °F 6.1 °F 7.7 °F 70% 30.25 in 10.0 mi North 6.9 mph - N/A   Overcast
11:14 AM 15.8 °F 3.4 °F 7.3 °F 69% 30.26 in 10.0 mi North 10.4 mph - N/A   Overcast
11:54 AM 17.1 °F 5.0 °F 7.5 °F 66% 30.27 in 10.0 mi North 10.4 mph - N/A   Scattered Clouds
12:14 PM 18.9 °F 8.0 °F 7.7 °F 62% 30.27 in 10.0 mi North 9.2 mph - N/A   Scattered Clouds
12:34 PM 19.2 °F 9.3 °F 8.1 °F 62% 30.26 in 10.0 mi North 8.1 mph - N/A   Clear
12:54 PM 19.6 °F 8.9 °F 8.1 °F 61% 30.26 in 10.0 mi NNE 9.2 mph - N/A   Clear
1:14 PM 20.7 °F 11.9 °F 8.6 °F 60% 30.26 in 10.0 mi North 6.9 mph - N/A   Clear
1:34 PM 20.8 °F 12.1 °F 8.1 °F 58% 30.26 in 10.0 mi North 6.9 mph - N/A   Clear
1:54 PM 21.2 °F 12.6 °F 8.4 °F 58% 30.25 in 10.0 mi NNE 6.9 mph - N/A   Clear
2:14 PM 22.1 °F 13.7 °F 8.8 °F 57% 30.25 in 10.0 mi NNE 6.9 mph - N/A   Clear
2:34 PM 21.7 °F 12.3 °F 8.4 °F 57% 30.25 in 10.0 mi North 8.1 mph - N/A   Clear
2:54 PM 22.5 °F 12.4 °F 9.5 °F 58% 30.26 in 10.0 mi North 9.2 mph - N/A   Clear
3:14 PM 22.6 °F 12.6 °F 10.0 °F 59% 30.27 in 10.0 mi NNW 9.2 mph - N/A   Clear
3:34 PM 21.9 °F 13.4 °F 9.5 °F 59% 30.27 in 10.0 mi North 6.9 mph - N/A   Clear
3:54 PM 21.6 °F 12.1 °F 9.1 °F 59% 30.27 in 10.0 mi North 8.1 mph - N/A   Clear
4:14 PM 21.2 °F 10.9 °F 9.3 °F 60% 30.28 in 10.0 mi North 9.2 mph - N/A   Clear
4:34 PM 20.8 °F 11.2 °F 9.0 °F 60% 30.29 in 10.0 mi North 8.1 mph - N/A   Clear
4:54 PM 20.3 °F 10.6 °F 8.6 °F 61% 30.29 in 10.0 mi North 8.1 mph - N/A   Clear
5:14 PM 19.6 °F 10.6 °F 8.4 °F 62% 30.29 in 10.0 mi North 6.9 mph - N/A   Clear
5:34 PM 18.5 °F 6.8 °F 8.1 °F 64% 30.30 in 10.0 mi North 10.4 mph - N/A   Clear
5:54 PM 17.4 °F 7.1 °F 8.6 °F 68% 30.30 in 10.0 mi North 8.1 mph - N/A   Clear
6:14 PM 16.5 °F 6.0 °F 7.9 °F 69% 30.31 in 10.0 mi North 8.1 mph - N/A   Clear
6:34 PM 15.6 °F 4.0 °F 7.3 °F 70% 30.32 in 10.0 mi North 9.2 mph - N/A   Clear
6:54 PM 14.9 °F 4.0 °F 7.3 °F 72% 30.33 in 10.0 mi North 8.1 mph - N/A   Clear
7:14 PM 14.2 °F 3.1 °F 6.8 °F 73% 30.34 in 10.0 mi North 8.1 mph - N/A   Clear
7:34 PM 13.6 °F 3.5 °F 6.6 °F 74% 30.34 in 10.0 mi North 6.9 mph - N/A   Clear
7:54 PM 13.8 °F 1.8 °F 6.6 °F 73% 30.34 in 10.0 mi North 9.2 mph - N/A   Clear
8:14 PM 13.8 °F 1.8 °F 6.8 °F 74% 30.34 in 10.0 mi North 9.2 mph - N/A   Clear
8:34 PM 13.1 °F 1.8 °F 6.6 °F 75% 30.34 in 10.0 mi North 8.1 mph - N/A   Clear
8:54 PM 12.7 °F 0.4 °F 6.6 °F 77% 30.33 in 10.0 mi NNE 9.2 mph - N/A   Clear
9:14 PM 12.0 °F 0.5 °F 6.6 °F 79% 30.33 in 10.0 mi NNE 8.1 mph - N/A   Clear
9:34 PM 11.8 °F 1.3 °F 6.4 °F 79% 30.34 in 10.0 mi North 6.9 mph - N/A   Clear
9:54 PM 12.2 °F -0.2 °F 6.3 °F 77% 30.35 in 10.0 mi NE 9.2 mph - N/A   Clear
10:14 PM 12.7 °F 0.4 °F 4.1 °F 68% 30.35 in 10.0 mi NE 9.2 mph - N/A   Clear
10:34 PM 12.9 °F 2.6 °F 4.1 °F 68% 30.36 in 10.0 mi NE 6.9 mph - N/A   Clear
10:54 PM 12.2 °F 0.7 °F 4.5 °F 71% 30.36 in 10.0 mi NE 8.1 mph - N/A   Clear
11:13 PM 12.0 °F -0.4 °F 4.5 °F 72% 30.35 in 10.0 mi NE 9.2 mph - N/A   Clear
11:34 PM 12.0 °F 4.1 °F 4.8 °F 73% 30.36 in 10.0 mi ENE 4.6 mph - N/A   Clear
11:54 PM 11.3 °F 0.7 °F 3.9 °F 72% 30.36 in 10.0 mi ENE 6.9 mph - N/A   Clear